To NAV CANADA Home Page Login to a new session Search on AWWS site Feedback and Comments Disclaimer Vers la page française équivalente Tips FAQ What's new on the site To the Forecasts and Observations / NOTAM section To "File a Flight Plan" website Publications and other links Update of the User's profile FIC Telephone Numbers My Weather Data Folder Route Weather Data Regional Weather Data Local Weather Data To the Forecasts and Observations / NOTAM section
Request Generated 10/18/2017 at 03:49:08 UTC . Weather information available at that time is displayed.

METAR/TAF

TRENTON/ON    

METAR CYTR 180300Z 25013KT 15SM SKC 15/10 A3009 RMK SLP193=
METAR CYTR 180200Z 24011G16KT 15SM FEW065 15/11 A3009 RMK SC2 SLP190=
METAR CYTR 180100Z 24014G20KT 15SM FEW065 FEW250 15/11 A3007 RMK SC2CI1 SLP185=

TAF CYTR 172330Z 1800/1824 23010G20KT P6SM SCT060 BKN250
FM180200 26008KT P6SM SKC PROB30 1808/1812 2SM BR BKN006
FM181500 23012KT P6SM FEW030
BECMG 1816/1818 23012G22KT
RMK NXT FCST BY 180600Z=
Your time UTC time
Weather data provided by Environment Canada and NAV CANADA